Chapin, South Carolina
Current Conditions -  °F | °C
As of 6:35 PM on Thursday 27 Nov 2014 (Local Time) from KFDW Reporting Station
Clear Clear  
Wind Chill: 38°   Ceiling: Unl
Heat Index: 43°   Visibility: 10mi
Dew Point: 30°   Wind: 8mph
Humidity: 61%   Direction: 330°NNW
Pressure: 30.21"   Gusts: NA
Location:  34.17°N, 81.35°W
Report Text: KFDW 272335Z AUTO 33007KT 10SM CLR 06/M01 A3021 RMK AO1
Loading
Personal Weather Stations






























Interactive Weather Map New forecast layout! Learn more

10-Day Weather Forecast

Advertisements
Track Severe Weather on mobile